sensor_id;sensor_type;location;lat;lon;timestamp;P1;durP1;ratioP1;P2;durP2;ratioP2
19747;SDS011;10032;51.386;12.516;2023-04-24T00:00:13;1.60;;;1.50;;
19747;SDS011;10032;51.386;12.516;2023-04-24T00:02:39;1.70;;;1.60;;
19747;SDS011;10032;51.386;12.516;2023-04-24T00:05:06;1.92;;;1.63;;
19747;SDS011;10032;51.386;12.516;2023-04-24T00:07:32;2.13;;;1.70;;
19747;SDS011;10032;51.386;12.516;2023-04-24T00:09:58;2.05;;;1.77;;
19747;SDS011;10032;51.386;12.516;2023-04-24T00:12:24;3.75;;;1.63;;
19747;SDS011;10032;51.386;12.516;2023-04-24T00:14:50;2.85;;;1.73;;
19747;SDS011;10032;51.386;12.516;2023-04-24T00:17:15;3.72;;;1.88;;
19747;SDS011;10032;51.386;12.516;2023-04-24T00:19:44;1.40;;;1.30;;
19747;SDS011;10032;51.386;12.516;2023-04-24T00:22:10;3.53;;;1.93;;
19747;SDS011;10032;51.386;12.516;2023-04-24T00:24:38;1.63;;;1.50;;
19747;SDS011;10032;51.386;12.516;2023-04-24T00:27:03;1.42;;;1.33;;
19747;SDS011;10032;51.386;12.516;2023-04-24T00:29:29;1.85;;;1.58;;
19747;SDS011;10032;51.386;12.516;2023-04-24T00:31:54;1.60;;;1.50;;
19747;SDS011;10032;51.386;12.516;2023-04-24T00:34:20;1.27;;;1.15;;
19747;SDS011;10032;51.386;12.516;2023-04-24T00:36:45;1.23;;;1.13;;
19747;SDS011;10032;51.386;12.516;2023-04-24T00:39:11;1.25;;;1.15;;
19747;SDS011;10032;51.386;12.516;2023-04-24T00:41:36;1.50;;;1.40;;
19747;SDS011;10032;51.386;12.516;2023-04-24T00:44:02;1.50;;;1.40;;
19747;SDS011;10032;51.386;12.516;2023-04-24T00:46:27;1.10;;;1.00;;
19747;SDS011;10032;51.386;12.516;2023-04-24T00:48:53;1.38;;;1.20;;
19747;SDS011;10032;51.386;12.516;2023-04-24T00:51:20;1.52;;;1.35;;
19747;SDS011;10032;51.386;12.516;2023-04-24T00:53:46;1.90;;;1.23;;
19747;SDS011;10032;51.386;12.516;2023-04-24T00:56:11;1.35;;;1.25;;
19747;SDS011;10032;51.386;12.516;2023-04-24T00:58:37;1.48;;;1.38;;
19747;SDS011;10032;51.386;12.516;2023-04-24T01:01:03;1.37;;;1.27;;
19747;SDS011;10032;51.386;12.516;2023-04-24T01:03:31;1.60;;;1.40;;
19747;SDS011;10032;51.386;12.516;2023-04-24T01:05:58;1.40;;;1.30;;
19747;SDS011;10032;51.386;12.516;2023-04-24T01:08:24;1.73;;;1.33;;
19747;SDS011;10032;51.386;12.516;2023-04-24T01:10:53;1.97;;;1.60;;
19747;SDS011;10032;51.386;12.516;2023-04-24T01:13:20;1.35;;;1.20;;
19747;SDS011;10032;51.386;12.516;2023-04-24T01:15:46;1.30;;;1.20;;
19747;SDS011;10032;51.386;12.516;2023-04-24T01:18:12;1.25;;;1.13;;
19747;SDS011;10032;51.386;12.516;2023-04-24T01:20:41;1.40;;;1.30;;
19747;SDS011;10032;51.386;12.516;2023-04-24T01:23:09;1.33;;;1.23;;
19747;SDS011;10032;51.386;12.516;2023-04-24T01:25:35;1.30;;;1.20;;
19747;SDS011;10032;51.386;12.516;2023-04-24T01:28:01;1.10;;;1.07;;
19747;SDS011;10032;51.386;12.516;2023-04-24T01:30:27;1.23;;;1.13;;
19747;SDS011;10032;51.386;12.516;2023-04-24T01:32:55;2.23;;;1.30;;
19747;SDS011;10032;51.386;12.516;2023-04-24T01:35:21;1.15;;;1.05;;
19747;SDS011;10032;51.386;12.516;2023-04-24T01:37:46;1.13;;;1.00;;
19747;SDS011;10032;51.386;12.516;2023-04-24T01:40:12;1.30;;;1.20;;
19747;SDS011;10032;51.386;12.516;2023-04-24T01:42:38;1.03;;;0.93;;
19747;SDS011;10032;51.386;12.516;2023-04-24T01:45:05;2.23;;;1.53;;
19747;SDS011;10032;51.386;12.516;2023-04-24T01:47:32;1.57;;;1.27;;
19747;SDS011;10032;51.386;12.516;2023-04-24T01:49:58;2.00;;;1.20;;
19747;SDS011;10032;51.386;12.516;2023-04-24T01:52:23;2.63;;;1.17;;
19747;SDS011;10032;51.386;12.516;2023-04-24T01:54:49;1.47;;;1.37;;
19747;SDS011;10032;51.386;12.516;2023-04-24T01:57:15;1.13;;;1.10;;
19747;SDS011;10032;51.386;12.516;2023-04-24T01:59:41;1.43;;;1.03;;
19747;SDS011;10032;51.386;12.516;2023-04-24T02:02:06;1.80;;;1.33;;
19747;SDS011;10032;51.386;12.516;2023-04-24T02:04:32;1.70;;;1.00;;
19747;SDS011;10032;51.386;12.516;2023-04-24T02:06:58;1.13;;;1.10;;
19747;SDS011;10032;51.386;12.516;2023-04-24T02:09:23;1.30;;;1.20;;
19747;SDS011;10032;51.386;12.516;2023-04-24T02:11:48;1.20;;;1.10;;
19747;SDS011;10032;51.386;12.516;2023-04-24T02:14:14;3.87;;;1.40;;
19747;SDS011;10032;51.386;12.516;2023-04-24T02:16:39;1.33;;;1.20;;
19747;SDS011;10032;51.386;12.516;2023-04-24T02:19:05;1.70;;;1.40;;
19747;SDS011;10032;51.386;12.516;2023-04-24T02:21:31;1.10;;;1.00;;
19747;SDS011;10032;51.386;12.516;2023-04-24T02:23:57;2.43;;;1.23;;
19747;SDS011;10032;51.386;12.516;2023-04-24T02:26:22;1.40;;;1.30;;
19747;SDS011;10032;51.386;12.516;2023-04-24T02:28:48;1.30;;;1.20;;
19747;SDS011;10032;51.386;12.516;2023-04-24T02:31:13;1.40;;;1.30;;
19747;SDS011;10032;51.386;12.516;2023-04-24T02:33:39;1.23;;;1.10;;
19747;SDS011;10032;51.386;12.516;2023-04-24T02:36:05;3.40;;;1.13;;
19747;SDS011;10032;51.386;12.516;2023-04-24T02:38:30;1.07;;;1.00;;
19747;SDS011;10032;51.386;12.516;2023-04-24T02:40:56;1.20;;;1.10;;
19747;SDS011;10032;51.386;12.516;2023-04-24T02:43:21;1.40;;;1.20;;
19747;SDS011;10032;51.386;12.516;2023-04-24T02:45:47;2.23;;;1.10;;
19747;SDS011;10032;51.386;12.516;2023-04-24T02:48:12;1.97;;;1.20;;
19747;SDS011;10032;51.386;12.516;2023-04-24T02:50:38;2.07;;;1.30;;
19747;SDS011;10032;51.386;12.516;2023-04-24T02:53:03;1.50;;;1.40;;
19747;SDS011;10032;51.386;12.516;2023-04-24T02:55:29;0.90;;;0.83;;
19747;SDS011;10032;51.386;12.516;2023-04-24T02:57:54;1.20;;;1.10;;
19747;SDS011;10032;51.386;12.516;2023-04-24T03:00:20;1.73;;;1.10;;
19747;SDS011;10032;51.386;12.516;2023-04-24T03:02:45;1.70;;;1.60;;
19747;SDS011;10032;51.386;12.516;2023-04-24T03:05:11;1.43;;;1.33;;
19747;SDS011;10032;51.386;12.516;2023-04-24T03:07:37;2.10;;;1.20;;
19747;SDS011;10032;51.386;12.516;2023-04-24T03:10:02;1.97;;;1.40;;
19747;SDS011;10032;51.386;12.516;2023-04-24T03:12:29;1.40;;;0.90;;
19747;SDS011;10032;51.386;12.516;2023-04-24T03:14:55;1.73;;;1.03;;
19747;SDS011;10032;51.386;12.516;2023-04-24T03:17:20;1.43;;;1.10;;
19747;SDS011;10032;51.386;12.516;2023-04-24T03:19:46;2.10;;;1.80;;
19747;SDS011;10032;51.386;12.516;2023-04-24T03:22:11;1.27;;;1.17;;
19747;SDS011;10032;51.386;12.516;2023-04-24T03:24:37;1.40;;;1.10;;
19747;SDS011;10032;51.386;12.516;2023-04-24T03:27:02;2.17;;;1.10;;
19747;SDS011;10032;51.386;12.516;2023-04-24T03:29:28;1.13;;;1.10;;
19747;SDS011;10032;51.386;12.516;2023-04-24T03:31:53;1.67;;;1.30;;
19747;SDS011;10032;51.386;12.516;2023-04-24T03:34:18;3.17;;;1.33;;
19747;SDS011;10032;51.386;12.516;2023-04-24T03:36:44;1.60;;;1.37;;
19747;SDS011;10032;51.386;12.516;2023-04-24T03:39:12;1.00;;;1.00;;
19747;SDS011;10032;51.386;12.516;2023-04-24T03:41:38;0.93;;;0.90;;
19747;SDS011;10032;51.386;12.516;2023-04-24T03:44:03;1.37;;;1.10;;
19747;SDS011;10032;51.386;12.516;2023-04-24T03:46:28;1.40;;;1.30;;
19747;SDS011;10032;51.386;12.516;2023-04-24T03:48:54;1.33;;;1.27;;
19747;SDS011;10032;51.386;12.516;2023-04-24T03:51:20;3.17;;;1.33;;
19747;SDS011;10032;51.386;12.516;2023-04-24T03:53:45;1.50;;;1.40;;
19747;SDS011;10032;51.386;12.516;2023-04-24T03:56:11;1.20;;;1.10;;
19747;SDS011;10032;51.386;12.516;2023-04-24T03:58:36;4.20;;;1.40;;
19747;SDS011;10032;51.386;12.516;2023-04-24T04:01:02;3.13;;;1.90;;
19747;SDS011;10032;51.386;12.516;2023-04-24T04:03:27;1.57;;;1.33;;
19747;SDS011;10032;51.386;12.516;2023-04-24T04:05:53;1.30;;;1.20;;
19747;SDS011;10032;51.386;12.516;2023-04-24T04:08:19;1.07;;;1.07;;
19747;SDS011;10032;51.386;12.516;2023-04-24T04:10:44;6.57;;;3.53;;
19747;SDS011;10032;51.386;12.516;2023-04-24T04:13:10;3.57;;;2.67;;
19747;SDS011;10032;51.386;12.516;2023-04-24T04:15:35;1.40;;;1.30;;
19747;SDS011;10032;51.386;12.516;2023-04-24T04:18:01;1.23;;;1.13;;
19747;SDS011;10032;51.386;12.516;2023-04-24T04:20:27;1.50;;;1.40;;
19747;SDS011;10032;51.386;12.516;2023-04-24T04:22:52;2.43;;;1.50;;
19747;SDS011;10032;51.386;12.516;2023-04-24T04:25:17;2.30;;;1.70;;
19747;SDS011;10032;51.386;12.516;2023-04-24T04:27:44;1.97;;;1.43;;
19747;SDS011;10032;51.386;12.516;2023-04-24T04:30:13;2.30;;;1.43;;
19747;SDS011;10032;51.386;12.516;2023-04-24T04:32:38;1.87;;;1.53;;
19747;SDS011;10032;51.386;12.516;2023-04-24T04:35:04;3.43;;;1.47;;
19747;SDS011;10032;51.386;12.516;2023-04-24T04:37:30;1.43;;;1.33;;
19747;SDS011;10032;51.386;12.516;2023-04-24T04:39:56;1.93;;;1.83;;
19747;SDS011;10032;51.386;12.516;2023-04-24T04:42:23;1.73;;;1.50;;
19747;SDS011;10032;51.386;12.516;2023-04-24T04:44:49;2.40;;;1.67;;
19747;SDS011;10032;51.386;12.516;2023-04-24T04:47:15;3.00;;;2.13;;
19747;SDS011;10032;51.386;12.516;2023-04-24T04:49:42;1.60;;;1.50;;
19747;SDS011;10032;51.386;12.516;2023-04-24T04:52:08;1.93;;;1.23;;
19747;SDS011;10032;51.386;12.516;2023-04-24T04:54:34;1.53;;;1.43;;
19747;SDS011;10032;51.386;12.516;2023-04-24T04:56:59;2.20;;;1.50;;
19747;SDS011;10032;51.386;12.516;2023-04-24T04:59:25;1.50;;;1.40;;
19747;SDS011;10032;51.386;12.516;2023-04-24T05:01:51;2.07;;;1.50;;
19747;SDS011;10032;51.386;12.516;2023-04-24T05:04:17;1.90;;;1.70;;
19747;SDS011;10032;51.386;12.516;2023-04-24T05:06:42;2.23;;;1.57;;
19747;SDS011;10032;51.386;12.516;2023-04-24T05:09:08;1.73;;;1.63;;
19747;SDS011;10032;51.386;12.516;2023-04-24T05:11:33;2.17;;;1.97;;
19747;SDS011;10032;51.386;12.516;2023-04-24T05:13:58;3.73;;;2.10;;
19747;SDS011;10032;51.386;12.516;2023-04-24T05:16:24;2.40;;;1.90;;
19747;SDS011;10032;51.386;12.516;2023-04-24T05:18:49;2.30;;;1.90;;
19747;SDS011;10032;51.386;12.516;2023-04-24T05:21:15;1.87;;;1.77;;
19747;SDS011;10032;51.386;12.516;2023-04-24T05:23:40;2.20;;;2.00;;
19747;SDS011;10032;51.386;12.516;2023-04-24T05:26:06;2.23;;;2.00;;
19747;SDS011;10032;51.386;12.516;2023-04-24T05:28:31;1.70;;;1.60;;
19747;SDS011;10032;51.386;12.516;2023-04-24T05:30:57;3.37;;;1.93;;
19747;SDS011;10032;51.386;12.516;2023-04-24T05:33:24;1.73;;;1.60;;
19747;SDS011;10032;51.386;12.516;2023-04-24T05:35:49;2.80;;;1.90;;
19747;SDS011;10032;51.386;12.516;2023-04-24T05:38:15;7.00;;;2.27;;
19747;SDS011;10032;51.386;12.516;2023-04-24T05:40:42;1.70;;;1.60;;
19747;SDS011;10032;51.386;12.516;2023-04-24T05:43:08;1.70;;;1.60;;
19747;SDS011;10032;51.386;12.516;2023-04-24T05:45:33;2.58;;;1.95;;
19747;SDS011;10032;51.386;12.516;2023-04-24T05:48:01;1.25;;;1.17;;
19747;SDS011;10032;51.386;12.516;2023-04-24T05:50:27;1.65;;;1.55;;
19747;SDS011;10032;51.386;12.516;2023-04-24T05:52:52;1.63;;;1.50;;
19747;SDS011;10032;51.386;12.516;2023-04-24T05:55:18;1.60;;;1.50;;
19747;SDS011;10032;51.386;12.516;2023-04-24T05:57:43;1.70;;;1.58;;
19747;SDS011;10032;51.386;12.516;2023-04-24T06:00:09;1.30;;;1.20;;
19747;SDS011;10032;51.386;12.516;2023-04-24T06:02:37;1.47;;;1.37;;
19747;SDS011;10032;51.386;12.516;2023-04-24T06:05:03;1.70;;;1.60;;
19747;SDS011;10032;51.386;12.516;2023-04-24T06:07:29;1.27;;;1.17;;
19747;SDS011;10032;51.386;12.516;2023-04-24T06:09:55;1.75;;;1.55;;
19747;SDS011;10032;51.386;12.516;2023-04-24T06:12:21;1.45;;;1.30;;
19747;SDS011;10032;51.386;12.516;2023-04-24T06:14:47;1.27;;;1.17;;
19747;SDS011;10032;51.386;12.516;2023-04-24T06:17:12;2.13;;;1.05;;
19747;SDS011;10032;51.386;12.516;2023-04-24T06:19:38;1.95;;;1.40;;
19747;SDS011;10032;51.386;12.516;2023-04-24T06:22:04;1.63;;;1.52;;
19747;SDS011;10032;51.386;12.516;2023-04-24T06:24:29;1.67;;;1.58;;
19747;SDS011;10032;51.386;12.516;2023-04-24T06:26:55;1.20;;;1.10;;
19747;SDS011;10032;51.386;12.516;2023-04-24T06:29:22;1.88;;;1.13;;
19747;SDS011;10032;51.386;12.516;2023-04-24T06:31:47;1.52;;;1.17;;
19747;SDS011;10032;51.386;12.516;2023-04-24T06:34:13;0.90;;;0.90;;
19747;SDS011;10032;51.386;12.516;2023-04-24T06:36:38;2.13;;;0.88;;
19747;SDS011;10032;51.386;12.516;2023-04-24T06:39:03;1.63;;;1.10;;
19747;SDS011;10032;51.386;12.516;2023-04-24T06:41:29;2.85;;;0.95;;
19747;SDS011;10032;51.386;12.516;2023-04-24T06:43:55;2.17;;;1.13;;
19747;SDS011;10032;51.386;12.516;2023-04-24T06:46:20;1.60;;;1.50;;
19747;SDS011;10032;51.386;12.516;2023-04-24T06:48:51;1.38;;;1.10;;
19747;SDS011;10032;51.386;12.516;2023-04-24T06:51:17;2.95;;;1.27;;
19747;SDS011;10032;51.386;12.516;2023-04-24T06:53:43;1.23;;;1.15;;
19747;SDS011;10032;51.386;12.516;2023-04-24T06:56:08;0.93;;;0.93;;
19747;SDS011;10032;51.386;12.516;2023-04-24T06:58:34;6.10;;;1.10;;
19747;SDS011;10032;51.386;12.516;2023-04-24T07:00:59;1.30;;;1.20;;
19747;SDS011;10032;51.386;12.516;2023-04-24T07:03:25;1.73;;;1.30;;
19747;SDS011;10032;51.386;12.516;2023-04-24T07:05:50;1.20;;;1.08;;
19747;SDS011;10032;51.386;12.516;2023-04-24T07:08:16;1.02;;;1.02;;
19747;SDS011;10032;51.386;12.516;2023-04-24T07:10:43;1.30;;;1.20;;
19747;SDS011;10032;51.386;12.516;2023-04-24T07:13:09;2.65;;;1.15;;
19747;SDS011;10032;51.386;12.516;2023-04-24T07:15:34;1.20;;;1.10;;
19747;SDS011;10032;51.386;12.516;2023-04-24T07:18:00;2.92;;;1.42;;
19747;SDS011;10032;51.386;12.516;2023-04-24T07:20:25;1.80;;;1.50;;
19747;SDS011;10032;51.386;12.516;2023-04-24T07:22:51;2.53;;;1.20;;
19747;SDS011;10032;51.386;12.516;2023-04-24T07:25:18;1.38;;;1.27;;
19747;SDS011;10032;51.386;12.516;2023-04-24T07:27:44;1.33;;;1.23;;
19747;SDS011;10032;51.386;12.516;2023-04-24T07:30:10;1.55;;;1.20;;
19747;SDS011;10032;51.386;12.516;2023-04-24T07:32:36;1.13;;;1.00;;
19747;SDS011;10032;51.386;12.516;2023-04-24T07:35:01;2.35;;;1.05;;
19747;SDS011;10032;51.386;12.516;2023-04-24T07:37:27;2.22;;;1.20;;
19747;SDS011;10032;51.386;12.516;2023-04-24T07:39:53;2.33;;;1.45;;
19747;SDS011;10032;51.386;12.516;2023-04-24T07:42:18;1.10;;;1.00;;
19747;SDS011;10032;51.386;12.516;2023-04-24T07:44:44;1.70;;;1.05;;
19747;SDS011;10032;51.386;12.516;2023-04-24T07:47:11;3.33;;;1.42;;
19747;SDS011;10032;51.386;12.516;2023-04-24T07:49:37;1.65;;;1.50;;
19747;SDS011;10032;51.386;12.516;2023-04-24T07:52:02;1.70;;;1.25;;
19747;SDS011;10032;51.386;12.516;2023-04-24T07:54:28;3.42;;;1.15;;
19747;SDS011;10032;51.386;12.516;2023-04-24T07:56:54;1.98;;;1.00;;
19747;SDS011;10032;51.386;12.516;2023-04-24T07:59:19;2.05;;;0.95;;
19747;SDS011;10032;51.386;12.516;2023-04-24T08:01:45;2.72;;;1.52;;
19747;SDS011;10032;51.386;12.516;2023-04-24T08:04:10;1.27;;;1.10;;
19747;SDS011;10032;51.386;12.516;2023-04-24T08:06:35;2.65;;;1.10;;
19747;SDS011;10032;51.386;12.516;2023-04-24T08:09:01;4.13;;;1.25;;
19747;SDS011;10032;51.386;12.516;2023-04-24T08:11:26;0.80;;;0.75;;
19747;SDS011;10032;51.386;12.516;2023-04-24T08:13:52;1.17;;;0.75;;
19747;SDS011;10032;51.386;12.516;2023-04-24T08:16:18;2.03;;;0.95;;
19747;SDS011;10032;51.386;12.516;2023-04-24T08:18:43;1.10;;;0.88;;
19747;SDS011;10032;51.386;12.516;2023-04-24T08:21:08;1.20;;;1.10;;
19747;SDS011;10032;51.386;12.516;2023-04-24T08:23:34;1.65;;;0.88;;
19747;SDS011;10032;51.386;12.516;2023-04-24T08:25:59;2.40;;;1.13;;
19747;SDS011;10032;51.386;12.516;2023-04-24T08:28:25;1.60;;;1.23;;
19747;SDS011;10032;51.386;12.516;2023-04-24T08:30:50;1.10;;;1.00;;
19747;SDS011;10032;51.386;12.516;2023-04-24T08:33:19;1.17;;;0.80;;
19747;SDS011;10032;51.386;12.516;2023-04-24T08:35:45;1.30;;;0.90;;
19747;SDS011;10032;51.386;12.516;2023-04-24T08:38:11;1.13;;;1.13;;
19747;SDS011;10032;51.386;12.516;2023-04-24T08:40:36;1.63;;;1.20;;
19747;SDS011;10032;51.386;12.516;2023-04-24T08:43:02;1.55;;;1.08;;
19747;SDS011;10032;51.386;12.516;2023-04-24T08:45:28;1.85;;;1.15;;
19747;SDS011;10032;51.386;12.516;2023-04-24T08:47:54;0.82;;;0.82;;
19747;SDS011;10032;51.386;12.516;2023-04-24T08:50:20;1.52;;;1.02;;
19747;SDS011;10032;51.386;12.516;2023-04-24T08:52:47;1.23;;;0.82;;
19747;SDS011;10032;51.386;12.516;2023-04-24T08:55:15;1.58;;;1.48;;
19747;SDS011;10032;51.386;12.516;2023-04-24T08:57:43;1.65;;;0.90;;
19747;SDS011;10032;51.386;12.516;2023-04-24T09:00:10;1.77;;;1.42;;
19747;SDS011;10032;51.386;12.516;2023-04-24T09:02:38;1.58;;;0.73;;
19747;SDS011;10032;51.386;12.516;2023-04-24T09:05:06;1.00;;;0.90;;
19747;SDS011;10032;51.386;12.516;2023-04-24T09:07:33;0.70;;;0.65;;
19747;SDS011;10032;51.386;12.516;2023-04-24T09:10:02;2.17;;;0.70;;
19747;SDS011;10032;51.386;12.516;2023-04-24T09:12:28;1.00;;;1.00;;
19747;SDS011;10032;51.386;12.516;2023-04-24T09:14:53;1.83;;;0.88;;
19747;SDS011;10032;51.386;12.516;2023-04-24T09:17:20;0.90;;;0.60;;
19747;SDS011;10032;51.386;12.516;2023-04-24T09:19:47;0.70;;;0.63;;
19747;SDS011;10032;51.386;12.516;2023-04-24T09:22:13;0.73;;;0.57;;
19747;SDS011;10032;51.386;12.516;2023-04-24T09:24:40;0.60;;;0.60;;
19747;SDS011;10032;51.386;12.516;2023-04-24T09:27:05;1.25;;;0.60;;
19747;SDS011;10032;51.386;12.516;2023-04-24T09:29:32;0.93;;;0.60;;
19747;SDS011;10032;51.386;12.516;2023-04-24T09:31:58;0.80;;;0.80;;
19747;SDS011;10032;51.386;12.516;2023-04-24T09:34:24;3.30;;;0.70;;
19747;SDS011;10032;51.386;12.516;2023-04-24T09:36:51;0.70;;;0.70;;
19747;SDS011;10032;51.386;12.516;2023-04-24T09:39:17;0.60;;;0.60;;
19747;SDS011;10032;51.386;12.516;2023-04-24T09:44:26;1.08;;;0.98;;
19747;SDS011;10032;51.386;12.516;2023-04-24T09:46:59;0.40;;;0.40;;
19747;SDS011;10032;51.386;12.516;2023-04-24T09:49:29;0.93;;;0.80;;
19747;SDS011;10032;51.386;12.516;2023-04-24T09:54:30;0.70;;;0.70;;
19747;SDS011;10032;51.386;12.516;2023-04-24T09:56:56;4.80;;;1.23;;
19747;SDS011;10032;51.386;12.516;2023-04-24T09:59:21;1.10;;;0.98;;
19747;SDS011;10032;51.386;12.516;2023-04-24T10:01:47;2.15;;;0.77;;
19747;SDS011;10032;51.386;12.516;2023-04-24T10:04:24;0.90;;;0.80;;
19747;SDS011;10032;51.386;12.516;2023-04-24T10:06:52;0.60;;;0.60;;
19747;SDS011;10032;51.386;12.516;2023-04-24T10:09:19;0.85;;;0.77;;
19747;SDS011;10032;51.386;12.516;2023-04-24T10:11:48;0.70;;;0.70;;
19747;SDS011;10032;51.386;12.516;2023-04-24T10:14:20;1.77;;;0.90;;
19747;SDS011;10032;51.386;12.516;2023-04-24T10:16:47;0.85;;;0.80;;
19747;SDS011;10032;51.386;12.516;2023-04-24T10:19:14;1.35;;;0.60;;
19747;SDS011;10032;51.386;12.516;2023-04-24T10:21:41;1.95;;;1.10;;
19747;SDS011;10032;51.386;12.516;2023-04-24T10:24:11;1.83;;;1.10;;
19747;SDS011;10032;51.386;12.516;2023-04-24T10:26:37;1.08;;;1.00;;
19747;SDS011;10032;51.386;12.516;2023-04-24T10:29:03;0.98;;;0.88;;
19747;SDS011;10032;51.386;12.516;2023-04-24T10:31:34;2.15;;;1.00;;
19747;SDS011;10032;51.386;12.516;2023-04-24T10:34:01;0.90;;;0.80;;
19747;SDS011;10032;51.386;12.516;2023-04-24T10:36:29;0.80;;;0.80;;
19747;SDS011;10032;51.386;12.516;2023-04-24T10:38:57;0.80;;;0.80;;
19747;SDS011;10032;51.386;12.516;2023-04-24T10:41:25;1.52;;;1.23;;
19747;SDS011;10032;51.386;12.516;2023-04-24T10:44:10;0.93;;;0.90;;
19747;SDS011;10032;51.386;12.516;2023-04-24T10:46:38;1.00;;;0.90;;
19747;SDS011;10032;51.386;12.516;2023-04-24T10:49:07;1.10;;;0.80;;
19747;SDS011;10032;51.386;12.516;2023-04-24T10:51:46;1.30;;;0.98;;
19747;SDS011;10032;51.386;12.516;2023-04-24T10:54:21;1.85;;;0.90;;
19747;SDS011;10032;51.386;12.516;2023-04-24T10:56:47;0.88;;;0.88;;
19747;SDS011;10032;51.386;12.516;2023-04-24T10:59:13;1.17;;;1.00;;
19747;SDS011;10032;51.386;12.516;2023-04-24T11:01:52;1.13;;;1.02;;
19747;SDS011;10032;51.386;12.516;2023-04-24T11:04:28;3.92;;;0.93;;
19747;SDS011;10032;51.386;12.516;2023-04-24T11:06:55;2.33;;;1.33;;
19747;SDS011;10032;51.386;12.516;2023-04-24T11:09:21;1.60;;;0.82;;
19747;SDS011;10032;51.386;12.516;2023-04-24T11:11:47;1.05;;;0.93;;
19747;SDS011;10032;51.386;12.516;2023-04-24T11:14:15;0.90;;;0.77;;
19747;SDS011;10032;51.386;12.516;2023-04-24T11:21:44;1.13;;;1.02;;
19747;SDS011;10032;51.386;12.516;2023-04-24T11:29:40;0.80;;;0.80;;
19747;SDS011;10032;51.386;12.516;2023-04-24T11:32:15;1.67;;;1.00;;
19747;SDS011;10032;51.386;12.516;2023-04-24T11:34:45;1.30;;;1.20;;
19747;SDS011;10032;51.386;12.516;2023-04-24T11:37:11;0.82;;;0.82;;
19747;SDS011;10032;51.386;12.516;2023-04-24T11:39:37;2.15;;;1.38;;
19747;SDS011;10032;51.386;12.516;2023-04-24T11:42:03;2.22;;;1.02;;
19747;SDS011;10032;51.386;12.516;2023-04-24T11:44:28;1.10;;;0.85;;
19747;SDS011;10032;51.386;12.516;2023-04-24T11:46:55;0.77;;;0.77;;
19747;SDS011;10032;51.386;12.516;2023-04-24T11:49:21;1.85;;;1.10;;
19747;SDS011;10032;51.386;12.516;2023-04-24T11:51:46;1.63;;;1.00;;
19747;SDS011;10032;51.386;12.516;2023-04-24T11:54:12;1.33;;;0.98;;
19747;SDS011;10032;51.386;12.516;2023-04-24T11:56:37;2.58;;;1.15;;
19747;SDS011;10032;51.386;12.516;2023-04-24T11:59:03;0.93;;;0.90;;
19747;SDS011;10032;51.386;12.516;2023-04-24T12:01:29;1.10;;;1.00;;
19747;SDS011;10032;51.386;12.516;2023-04-24T12:03:59;1.33;;;1.17;;
19747;SDS011;10032;51.386;12.516;2023-04-24T12:06:25;1.10;;;1.00;;
19747;SDS011;10032;51.386;12.516;2023-04-24T12:08:51;1.20;;;1.10;;
19747;SDS011;10032;51.386;12.516;2023-04-24T12:11:19;1.30;;;1.20;;
19747;SDS011;10032;51.386;12.516;2023-04-24T12:13:45;1.33;;;1.15;;
19747;SDS011;10032;51.386;12.516;2023-04-24T12:16:10;0.85;;;0.85;;
19747;SDS011;10032;51.386;12.516;2023-04-24T12:18:41;1.55;;;1.05;;
19747;SDS011;10032;51.386;12.516;2023-04-24T12:21:17;1.20;;;1.10;;
19747;SDS011;10032;51.386;12.516;2023-04-24T12:23:43;2.60;;;1.42;;
19747;SDS011;10032;51.386;12.516;2023-04-24T12:26:10;1.38;;;1.08;;
19747;SDS011;10032;51.386;12.516;2023-04-24T12:28:36;1.08;;;0.82;;
19747;SDS011;10032;51.386;12.516;2023-04-24T12:31:02;1.55;;;1.20;;
19747;SDS011;10032;51.386;12.516;2023-04-24T12:33:31;7.95;;;1.13;;
19747;SDS011;10032;51.386;12.516;2023-04-24T12:35:58;2.28;;;1.00;;
19747;SDS011;10032;51.386;12.516;2023-04-24T12:38:25;0.98;;;0.90;;
19747;SDS011;10032;51.386;12.516;2023-04-24T12:43:36;1.52;;;1.40;;
19747;SDS011;10032;51.386;12.516;2023-04-24T12:46:02;1.73;;;1.63;;
19747;SDS011;10032;51.386;12.516;2023-04-24T12:48:28;3.22;;;1.67;;
19747;SDS011;10032;51.386;12.516;2023-04-24T12:50:54;1.73;;;1.33;;
19747;SDS011;10032;51.386;12.516;2023-04-24T12:53:21;1.00;;;1.00;;
19747;SDS011;10032;51.386;12.516;2023-04-24T12:55:47;1.38;;;1.27;;
19747;SDS011;10032;51.386;12.516;2023-04-24T12:58:18;0.82;;;0.82;;
19747;SDS011;10032;51.386;12.516;2023-04-24T13:00:45;1.77;;;1.30;;
19747;SDS011;10032;51.386;12.516;2023-04-24T13:03:11;2.35;;;1.20;;
19747;SDS011;10032;51.386;12.516;2023-04-24T13:05:36;1.75;;;1.40;;
19747;SDS011;10032;51.386;12.516;2023-04-24T13:08:02;2.67;;;1.23;;
19747;SDS011;10032;51.386;12.516;2023-04-24T13:10:27;1.08;;;0.98;;
19747;SDS011;10032;51.386;12.516;2023-04-24T13:12:53;1.67;;;1.30;;
19747;SDS011;10032;51.386;12.516;2023-04-24T13:15:18;1.30;;;1.13;;
19747;SDS011;10032;51.386;12.516;2023-04-24T13:17:44;1.52;;;1.38;;
19747;SDS011;10032;51.386;12.516;2023-04-24T13:20:09;4.15;;;1.30;;
19747;SDS011;10032;51.386;12.516;2023-04-24T13:22:35;1.25;;;1.15;;
19747;SDS011;10032;51.386;12.516;2023-04-24T13:25:01;1.38;;;1.15;;
19747;SDS011;10032;51.386;12.516;2023-04-24T13:27:26;1.25;;;1.15;;
19747;SDS011;10032;51.386;12.516;2023-04-24T13:29:52;1.23;;;1.10;;
19747;SDS011;10032;51.386;12.516;2023-04-24T13:32:17;2.05;;;0.90;;
19747;SDS011;10032;51.386;12.516;2023-04-24T13:34:43;1.08;;;1.05;;
19747;SDS011;10032;51.386;12.516;2023-04-24T13:37:08;1.40;;;1.30;;
19747;SDS011;10032;51.386;12.516;2023-04-24T13:39:33;1.20;;;1.10;;
19747;SDS011;10032;51.386;12.516;2023-04-24T13:42:00;1.50;;;1.40;;
19747;SDS011;10032;51.386;12.516;2023-04-24T13:44:25;2.92;;;1.48;;
19747;SDS011;10032;51.386;12.516;2023-04-24T13:46:52;1.35;;;1.25;;
19747;SDS011;10032;51.386;12.516;2023-04-24T13:49:19;2.90;;;1.55;;
19747;SDS011;10032;51.386;12.516;2023-04-24T13:51:46;1.70;;;1.20;;
19747;SDS011;10032;51.386;12.516;2023-04-24T13:54:12;1.30;;;1.20;;
19747;SDS011;10032;51.386;12.516;2023-04-24T13:56:38;0.98;;;0.98;;
19747;SDS011;10032;51.386;12.516;2023-04-24T13:59:04;1.30;;;1.20;;
19747;SDS011;10032;51.386;12.516;2023-04-24T14:01:30;1.15;;;1.15;;
19747;SDS011;10032;51.386;12.516;2023-04-24T14:03:55;2.63;;;1.27;;
19747;SDS011;10032;51.386;12.516;2023-04-24T14:06:21;1.67;;;1.17;;
19747;SDS011;10032;51.386;12.516;2023-04-24T14:08:48;1.77;;;1.30;;
19747;SDS011;10032;51.386;12.516;2023-04-24T14:11:14;1.00;;;0.98;;
19747;SDS011;10032;51.386;12.516;2023-04-24T14:13:40;2.13;;;1.25;;
19747;SDS011;10032;51.386;12.516;2023-04-24T14:16:07;0.82;;;0.80;;
19747;SDS011;10032;51.386;12.516;2023-04-24T14:18:33;1.38;;;1.27;;
19747;SDS011;10032;51.386;12.516;2023-04-24T14:20:59;3.78;;;1.40;;
19747;SDS011;10032;51.386;12.516;2023-04-24T14:23:26;2.22;;;0.80;;
19747;SDS011;10032;51.386;12.516;2023-04-24T14:25:51;1.20;;;1.10;;
19747;SDS011;10032;51.386;12.516;2023-04-24T14:28:20;1.15;;;0.98;;
19747;SDS011;10032;51.386;12.516;2023-04-24T14:30:46;1.05;;;0.50;;
19747;SDS011;10032;51.386;12.516;2023-04-24T14:33:12;2.13;;;0.90;;
19747;SDS011;10032;51.386;12.516;2023-04-24T14:35:38;2.85;;;0.90;;
19747;SDS011;10032;51.386;12.516;2023-04-24T14:38:05;2.33;;;1.10;;
19747;SDS011;10032;51.386;12.516;2023-04-24T14:40:30;2.47;;;1.00;;
19747;SDS011;10032;51.386;12.516;2023-04-24T14:42:57;1.13;;;0.95;;
19747;SDS011;10032;51.386;12.516;2023-04-24T14:45:23;3.42;;;1.20;;